createdAt,value
2023-04-10T00:00:12.368Z,100.00
2023-04-10T00:02:38.860Z,100.00
2023-04-10T00:05:06.975Z,100.00
2023-04-10T00:07:33.598Z,100.00
2023-04-10T00:10:00.291Z,100.00
2023-04-10T00:12:26.671Z,100.00
2023-04-10T00:14:53.115Z,100.00
2023-04-10T00:17:19.547Z,100.00
2023-04-10T00:19:45.966Z,100.00
2023-04-10T00:22:12.374Z,100.00
2023-04-10T00:24:38.819Z,100.00
2023-04-10T00:27:05.222Z,100.00
2023-04-10T00:29:31.924Z,100.00
2023-04-10T00:31:58.366Z,100.00
2023-04-10T00:34:25.626Z,100.00
2023-04-10T00:36:52.288Z,100.00
2023-04-10T00:39:19.328Z,100.00
2023-04-10T00:41:45.678Z,100.00
2023-04-10T00:44:12.112Z,100.00
2023-04-10T00:46:40.210Z,100.00
2023-04-10T00:49:06.772Z,100.00
2023-04-10T00:51:33.623Z,100.00
2023-04-10T00:54:00.554Z,100.00
2023-04-10T00:56:27.201Z,100.00
2023-04-10T00:58:53.627Z,100.00
2023-04-10T01:01:20.953Z,100.00
2023-04-10T01:03:47.550Z,100.00
2023-04-10T01:06:35.754Z,100.00
2023-04-10T01:09:12.964Z,100.00
2023-04-10T01:11:53.507Z,100.00
2023-04-10T01:14:30.959Z,100.00
2023-04-10T01:17:07.952Z,100.00
2023-04-10T01:19:57.624Z,100.00
2023-04-10T01:22:29.743Z,100.00
2023-04-10T01:25:16.160Z,100.00
2023-04-10T01:27:58.041Z,100.00
2023-04-10T01:30:25.074Z,100.00
2023-04-10T01:32:54.312Z,100.00
2023-04-10T01:35:21.977Z,100.00
2023-04-10T01:37:51.016Z,100.00
2023-04-10T01:40:21.040Z,100.00
2023-04-10T01:42:57.523Z,100.00
2023-04-10T01:45:28.354Z,100.00
2023-04-10T01:47:56.191Z,100.00
2023-04-10T01:50:23.702Z,100.00
2023-04-10T01:52:51.459Z,100.00
2023-04-10T01:55:20.932Z,100.00
2023-04-10T01:57:48.353Z,100.00
2023-04-10T02:00:16.238Z,100.00
2023-04-10T02:02:43.758Z,100.00
2023-04-10T02:05:10.964Z,100.00
2023-04-10T02:08:05.564Z,100.00
2023-04-10T02:10:41.657Z,100.00
2023-04-10T02:13:11.874Z,100.00
2023-04-10T02:15:42.592Z,100.00
2023-04-10T02:18:10.605Z,100.00
2023-04-10T02:20:37.413Z,100.00
2023-04-10T02:23:04.162Z,100.00
2023-04-10T02:25:35.010Z,100.00
2023-04-10T02:28:08.484Z,100.00
2023-04-10T02:30:35.638Z,100.00
2023-04-10T02:33:02.426Z,100.00
2023-04-10T02:35:28.849Z,100.00
2023-04-10T02:37:55.302Z,100.00
2023-04-10T02:40:21.650Z,100.00
2023-04-10T02:42:48.926Z,100.00
2023-04-10T02:45:15.310Z,100.00
2023-04-10T02:47:42.039Z,100.00
2023-04-10T02:50:09.339Z,100.00
2023-04-10T02:52:35.696Z,100.00
2023-04-10T02:55:02.188Z,100.00
2023-04-10T02:57:28.682Z,100.00
2023-04-10T02:59:55.336Z,100.00
2023-04-10T03:02:21.900Z,100.00
2023-04-10T03:04:48.455Z,100.00
2023-04-10T03:07:15.118Z,100.00
2023-04-10T03:09:41.571Z,100.00
2023-04-10T03:12:08.224Z,100.00
2023-04-10T03:14:34.889Z,100.00
2023-04-10T03:17:02.113Z,100.00
2023-04-10T03:19:28.936Z,100.00
2023-04-10T03:21:55.593Z,100.00
2023-04-10T03:24:22.289Z,100.00
2023-04-10T03:26:48.987Z,100.00
2023-04-10T03:29:15.830Z,100.00
2023-04-10T03:31:42.272Z,100.00
2023-04-10T03:34:08.877Z,100.00
2023-04-10T03:36:35.298Z,100.00
2023-04-10T03:39:01.817Z,100.00
2023-04-10T03:41:28.171Z,100.00
2023-04-10T03:43:54.973Z,100.00
2023-04-10T03:46:21.574Z,100.00
2023-04-10T03:48:48.190Z,100.00
2023-04-10T03:51:14.577Z,100.00
2023-04-10T03:53:41.073Z,100.00
2023-04-10T03:56:08.700Z,100.00
2023-04-10T03:58:35.141Z,100.00
2023-04-10T04:01:01.699Z,100.00
2023-04-10T04:03:28.577Z,100.00
2023-04-10T04:05:55.570Z,100.00
2023-04-10T04:08:22.006Z,100.00
2023-04-10T04:10:48.482Z,100.00
2023-04-10T04:13:15.065Z,100.00
2023-04-10T04:15:41.487Z,100.00
2023-04-10T04:18:09.196Z,100.00
2023-04-10T04:20:35.526Z,100.00
2023-04-10T04:23:01.899Z,100.00
2023-04-10T04:25:28.322Z,100.00
2023-04-10T04:27:54.707Z,100.00
2023-04-10T04:30:21.149Z,100.00
2023-04-10T04:32:47.606Z,100.00
2023-04-10T04:35:14.188Z,100.00
2023-04-10T04:37:40.536Z,100.00
2023-04-10T04:40:07.779Z,100.00
2023-04-10T04:42:34.131Z,100.00
2023-04-10T04:45:00.483Z,100.00
2023-04-10T04:47:27.100Z,100.00
2023-04-10T04:49:53.637Z,100.00
2023-04-10T04:52:20.104Z,100.00
2023-04-10T04:54:46.553Z,100.00
2023-04-10T04:57:13.245Z,100.00
2023-04-10T04:59:39.694Z,100.00
2023-04-10T05:02:06.718Z,100.00
2023-04-10T05:04:33.191Z,100.00
2023-04-10T05:06:59.609Z,100.00
2023-04-10T05:09:25.986Z,100.00
2023-04-10T05:11:52.428Z,100.00
2023-04-10T05:14:20.057Z,100.00
2023-04-10T05:16:46.467Z,100.00
2023-04-10T05:19:12.956Z,100.00
2023-04-10T05:21:39.347Z,100.00
2023-04-10T05:24:05.854Z,100.00
2023-04-10T05:26:32.360Z,100.00
2023-04-10T05:28:58.787Z,100.00
2023-04-10T05:31:25.226Z,100.00
2023-04-10T05:33:52.005Z,100.00
2023-04-10T05:36:18.489Z,100.00
2023-04-10T05:38:45.061Z,100.00
2023-04-10T05:41:11.605Z,100.00
2023-04-10T05:43:38.340Z,100.00
2023-04-10T05:46:06.116Z,100.00
2023-04-10T05:48:32.610Z,100.00
2023-04-10T05:50:59.091Z,100.00
2023-04-10T05:53:29.850Z,100.00
2023-04-10T05:55:56.559Z,100.00
2023-04-10T05:58:23.397Z,100.00
2023-04-10T06:00:49.826Z,100.00
2023-04-10T06:03:16.591Z,100.00
2023-04-10T06:05:43.432Z,100.00
2023-04-10T06:08:10.281Z,100.00
2023-04-10T06:10:37.097Z,100.00
2023-04-10T06:13:03.986Z,100.00
2023-04-10T06:15:30.464Z,100.00
2023-04-10T06:17:57.073Z,100.00
2023-04-10T06:20:23.898Z,100.00
2023-04-10T06:22:50.609Z,100.00
2023-04-10T06:25:17.276Z,100.00
2023-04-10T06:27:43.763Z,100.00
2023-04-10T06:30:10.628Z,100.00
2023-04-10T06:32:37.555Z,100.00
2023-04-10T06:35:04.882Z,100.00
2023-04-10T06:37:32.013Z,100.00
2023-04-10T06:40:06.585Z,100.00
2023-04-10T06:42:33.387Z,100.00
2023-04-10T06:45:00.633Z,100.00
2023-04-10T06:47:27.227Z,100.00
2023-04-10T06:49:53.767Z,100.00
2023-04-10T06:52:20.381Z,100.00
2023-04-10T06:54:47.305Z,100.00
2023-04-10T06:57:14.063Z,100.00
2023-04-10T06:59:40.382Z,99.22
2023-04-10T07:02:07.789Z,100.00
2023-04-10T07:04:34.417Z,99.12
2023-04-10T07:07:00.883Z,96.40
2023-04-10T07:09:27.785Z,97.97
2023-04-10T07:11:54.193Z,98.95
2023-04-10T07:14:20.789Z,96.23
2023-04-10T07:16:47.560Z,95.57
2023-04-10T07:19:14.132Z,93.04
2023-04-10T07:21:40.584Z,94.35
2023-04-10T07:24:07.066Z,92.86
2023-04-10T07:26:33.504Z,92.37
2023-04-10T07:28:59.941Z,92.95
2023-04-10T07:31:26.460Z,90.57
2023-04-10T07:33:53.128Z,86.02
2023-04-10T07:36:19.630Z,84.51
2023-04-10T07:38:46.029Z,85.21
2023-04-10T07:41:12.581Z,81.77
2023-04-10T07:43:38.991Z,81.89
2023-04-10T07:46:05.693Z,76.22
2023-04-10T07:48:32.071Z,73.68
2023-04-10T07:50:58.789Z,75.22
2023-04-10T07:53:25.267Z,73.31
2023-04-10T07:55:51.774Z,70.68
2023-04-10T07:58:18.329Z,70.15
2023-04-10T08:00:44.843Z,64.07
2023-04-10T08:03:12.687Z,66.24
2023-04-10T08:05:39.743Z,63.98
2023-04-10T08:08:06.160Z,60.81
2023-04-10T08:10:32.707Z,59.91
2023-04-10T08:12:59.157Z,60.66
2023-04-10T08:15:25.686Z,58.62
2023-04-10T08:17:52.126Z,59.77
2023-04-10T08:20:18.914Z,58.29
2023-04-10T08:22:45.637Z,60.43
2023-04-10T08:25:12.149Z,54.86
2023-04-10T08:27:38.535Z,54.41
2023-04-10T08:30:05.826Z,51.63
2023-04-10T08:32:32.374Z,51.51
2023-04-10T08:34:59.274Z,52.14
2023-04-10T08:37:26.274Z,50.59
2023-04-10T08:39:53.336Z,52.13
2023-04-10T08:42:19.730Z,51.08
2023-04-10T08:44:49.148Z,50.54
2023-04-10T08:47:20.431Z,50.76
2023-04-10T08:49:54.959Z,50.76
2023-04-10T08:52:23.230Z,50.04
2023-04-10T08:54:54.448Z,48.47
2023-04-10T08:57:20.995Z,48.33
2023-04-10T08:59:49.268Z,49.59
2023-04-10T09:02:15.872Z,47.30
2023-04-10T09:04:53.050Z,47.51
2023-04-10T09:07:19.528Z,45.96
2023-04-10T09:09:46.193Z,45.68
2023-04-10T09:12:13.507Z,44.97
2023-04-10T09:14:40.985Z,44.66
2023-04-10T09:17:21.772Z,45.96
2023-04-10T09:19:49.992Z,44.89
2023-04-10T09:22:16.651Z,44.74
2023-04-10T09:24:46.341Z,42.87
2023-04-10T09:27:32.448Z,42.53
2023-04-10T09:29:59.428Z,43.06
2023-04-10T09:32:44.177Z,40.92
2023-04-10T09:35:12.560Z,41.78
2023-04-10T09:37:40.160Z,40.95
2023-04-10T09:40:20.244Z,39.21
2023-04-10T09:42:47.565Z,39.79
2023-04-10T09:45:14.124Z,39.17
2023-04-10T09:47:40.609Z,38.73
2023-04-10T09:50:07.902Z,39.11
2023-04-10T09:52:35.257Z,38.08
2023-04-10T09:55:04.705Z,36.81
2023-04-10T09:57:34.917Z,37.02
2023-04-10T10:00:03.990Z,34.99
2023-04-10T10:02:31.694Z,34.64
2023-04-10T10:04:59.134Z,33.70
2023-04-10T10:07:26.011Z,33.03
2023-04-10T10:09:53.201Z,32.73
2023-04-10T10:12:24.348Z,32.71
2023-04-10T10:15:09.165Z,32.13
2023-04-10T10:17:43.613Z,32.22
2023-04-10T10:20:11.681Z,32.59
2023-04-10T10:22:38.523Z,31.93
2023-04-10T10:25:05.399Z,30.89
2023-04-10T10:27:34.301Z,30.75
2023-04-10T10:30:02.873Z,30.42
2023-04-10T10:32:34.240Z,30.06
2023-04-10T10:35:01.951Z,30.26
2023-04-10T10:37:29.757Z,30.35
2023-04-10T10:40:10.679Z,29.51
2023-04-10T10:43:04.913Z,29.89
2023-04-10T10:45:37.782Z,30.82
2023-04-10T10:48:04.369Z,30.75
2023-04-10T10:50:56.842Z,30.05
2023-04-10T10:53:42.191Z,30.80
2023-04-10T10:56:21.807Z,30.41
2023-04-10T10:58:49.800Z,29.34
2023-04-10T11:01:23.226Z,29.32
2023-04-10T11:03:50.332Z,29.97
2023-04-10T11:06:18.552Z,29.82
2023-04-10T11:08:46.666Z,29.59
2023-04-10T11:11:24.322Z,28.54
2023-04-10T11:13:50.639Z,29.14
2023-04-10T11:16:17.579Z,28.86
2023-04-10T11:18:51.210Z,29.42
2023-04-10T11:21:23.932Z,29.16
2023-04-10T11:23:50.551Z,29.26
2023-04-10T11:26:35.174Z,29.27
2023-04-10T11:29:04.437Z,28.69
2023-04-10T11:31:31.051Z,29.31
2023-04-10T11:33:57.428Z,29.85
2023-04-10T11:36:25.180Z,29.93
2023-04-10T11:38:59.901Z,27.01
2023-04-10T11:41:37.084Z,24.79
2023-04-10T11:44:08.054Z,24.42
2023-04-10T11:46:38.925Z,23.70
2023-04-10T11:49:07.085Z,24.18
2023-04-10T11:51:33.729Z,24.12
2023-04-10T11:54:11.335Z,24.38
2023-04-10T11:56:39.577Z,24.31
2023-04-10T11:59:06.298Z,23.91
2023-04-10T12:01:34.111Z,23.95
2023-04-10T12:04:00.885Z,23.73
2023-04-10T12:06:27.867Z,23.85
2023-04-10T12:08:55.227Z,23.79
2023-04-10T12:11:24.492Z,23.76
2023-04-10T12:13:57.446Z,23.44
2023-04-10T12:16:24.977Z,23.57
2023-04-10T12:18:51.540Z,24.84
2023-04-10T12:21:18.304Z,25.54
2023-04-10T12:23:44.956Z,24.98
2023-04-10T12:26:16.692Z,26.00
2023-04-10T12:28:51.958Z,25.54
2023-04-10T12:31:19.150Z,25.32
2023-04-10T12:33:46.512Z,25.11
2023-04-10T12:36:23.866Z,25.58
2023-04-10T12:38:51.358Z,25.21
2023-04-10T12:41:25.033Z,25.72
2023-04-10T12:43:54.068Z,25.86
2023-04-10T12:46:27.903Z,25.96
2023-04-10T12:48:56.302Z,25.58
2023-04-10T12:51:50.265Z,25.87
2023-04-10T12:54:34.011Z,25.23
2023-04-10T12:57:01.448Z,25.48
2023-04-10T12:59:29.491Z,26.46
2023-04-10T13:01:56.391Z,26.65
2023-04-10T13:04:23.491Z,26.51
2023-04-10T13:06:50.102Z,25.60
2023-04-10T13:09:16.917Z,26.00
2023-04-10T13:11:44.646Z,26.17
2023-04-10T13:14:12.219Z,26.17
2023-04-10T13:16:38.978Z,27.11
2023-04-10T13:19:05.658Z,25.86
2023-04-10T13:21:32.324Z,25.98
2023-04-10T13:23:59.282Z,25.60
2023-04-10T13:26:25.896Z,26.20
2023-04-10T13:28:54.093Z,25.55
2023-04-10T13:31:21.142Z,25.49
2023-04-10T13:33:48.163Z,25.78
2023-04-10T13:36:15.533Z,25.48
2023-04-10T13:38:45.021Z,25.76
2023-04-10T13:41:11.758Z,25.83
2023-04-10T13:43:38.257Z,25.99
2023-04-10T13:46:05.776Z,26.16
2023-04-10T13:48:40.137Z,24.87
2023-04-10T13:51:08.162Z,25.04
2023-04-10T13:53:35.243Z,25.80
2023-04-10T13:56:02.043Z,25.87
2023-04-10T13:58:28.587Z,25.69
2023-04-10T14:00:55.189Z,25.36
2023-04-10T14:03:21.870Z,25.44
2023-04-10T14:05:48.375Z,26.66
2023-04-10T14:08:14.866Z,26.12
2023-04-10T14:10:41.603Z,26.29
2023-04-10T14:13:08.013Z,25.98
2023-04-10T14:15:34.470Z,26.71
2023-04-10T14:18:00.967Z,27.04
2023-04-10T14:20:27.373Z,26.72
2023-04-10T14:22:53.919Z,26.08
2023-04-10T14:25:20.675Z,26.14
2023-04-10T14:27:47.511Z,26.04
2023-04-10T14:30:14.355Z,26.34
2023-04-10T14:32:41.280Z,25.37
2023-04-10T14:35:08.350Z,26.07
2023-04-10T14:37:34.805Z,26.15
2023-04-10T14:40:01.261Z,26.02
2023-04-10T14:42:27.654Z,26.08
2023-04-10T14:44:54.365Z,26.23
2023-04-10T14:47:20.792Z,26.08
2023-04-10T14:49:47.250Z,25.73
2023-04-10T14:52:13.995Z,25.90
2023-04-10T14:54:40.310Z,26.66
2023-04-10T14:57:06.871Z,26.59
2023-04-10T14:59:33.509Z,26.81
2023-04-10T15:02:00.179Z,26.54
2023-04-10T15:04:26.957Z,25.98
2023-04-10T15:06:53.718Z,26.00
2023-04-10T15:09:21.894Z,26.75
2023-04-10T15:11:48.417Z,27.12
2023-04-10T15:14:14.811Z,28.07
2023-04-10T15:16:41.298Z,27.05
2023-04-10T15:19:08.109Z,27.60
2023-04-10T15:21:34.692Z,28.33
2023-04-10T15:24:01.259Z,28.52
2023-04-10T15:26:27.683Z,28.38
2023-04-10T15:28:54.243Z,28.52
2023-04-10T15:31:23.879Z,28.75
2023-04-10T15:33:52.235Z,29.12
2023-04-10T15:36:19.105Z,29.45
2023-04-10T15:38:45.643Z,29.18
2023-04-10T15:41:13.071Z,29.21
2023-04-10T15:43:39.592Z,29.14
2023-04-10T15:46:06.216Z,28.96
2023-04-10T15:48:32.663Z,29.53
2023-04-10T15:51:03.122Z,29.79
2023-04-10T15:53:29.728Z,29.72
2023-04-10T15:55:56.177Z,30.25
2023-04-10T15:58:23.004Z,30.92
2023-04-10T16:00:49.380Z,30.47
2023-04-10T16:03:15.941Z,30.30
2023-04-10T16:05:42.655Z,31.02
2023-04-10T16:08:09.348Z,30.60
2023-04-10T16:10:35.882Z,31.14
2023-04-10T16:13:02.315Z,31.10
2023-04-10T16:15:29.117Z,30.83
2023-04-10T16:17:55.557Z,31.13
2023-04-10T16:20:22.059Z,31.36
2023-04-10T16:22:48.501Z,31.38
2023-04-10T16:25:14.879Z,31.52
2023-04-10T16:27:41.274Z,31.55
2023-04-10T16:30:08.607Z,30.93
2023-04-10T16:32:35.029Z,31.31
2023-04-10T16:35:01.785Z,31.64
2023-04-10T16:37:28.275Z,31.24
2023-04-10T16:39:55.085Z,31.74
2023-04-10T16:42:22.675Z,31.87
2023-04-10T16:44:49.124Z,31.96
2023-04-10T16:47:15.788Z,32.07
2023-04-10T16:49:42.369Z,31.80
2023-04-10T16:52:08.781Z,31.90
2023-04-10T16:54:35.333Z,32.19
2023-04-10T16:57:01.819Z,32.31
2023-04-10T16:59:28.536Z,32.32
2023-04-10T17:01:55.235Z,32.65
2023-04-10T17:04:21.776Z,32.62
2023-04-10T17:06:48.230Z,32.45
2023-04-10T17:09:14.652Z,32.96
2023-04-10T17:11:41.156Z,33.05
2023-04-10T17:14:07.692Z,33.60
2023-04-10T17:16:34.213Z,34.04
2023-04-10T17:19:00.688Z,34.29
2023-04-10T17:21:27.131Z,34.56
2023-04-10T17:23:53.717Z,35.22
2023-04-10T17:26:22.290Z,35.35
2023-04-10T17:28:49.510Z,35.41
2023-04-10T17:31:17.290Z,35.36
2023-04-10T17:33:44.335Z,35.20
2023-04-10T17:36:12.251Z,35.49
2023-04-10T17:38:39.541Z,35.27
2023-04-10T17:41:06.333Z,35.67
2023-04-10T17:43:33.736Z,36.09
2023-04-10T17:46:01.328Z,35.44
2023-04-10T17:48:28.760Z,36.00
2023-04-10T17:50:55.200Z,36.38
2023-04-10T17:53:21.839Z,36.85
2023-04-10T17:55:48.237Z,36.97
2023-04-10T17:58:14.688Z,36.42
2023-04-10T18:00:41.817Z,36.89
2023-04-10T18:03:09.466Z,37.11
2023-04-10T18:05:36.424Z,37.27
2023-04-10T18:08:03.370Z,37.15
2023-04-10T18:10:29.908Z,37.13
2023-04-10T18:12:56.587Z,37.51
2023-04-10T18:15:23.054Z,37.68
2023-04-10T18:17:49.596Z,37.79
2023-04-10T18:20:16.369Z,38.16
2023-04-10T18:22:42.770Z,38.69
2023-04-10T18:25:09.443Z,38.72
2023-04-10T18:27:36.079Z,38.63
2023-04-10T18:30:02.836Z,39.05
2023-04-10T18:32:29.526Z,39.57
2023-04-10T18:34:55.954Z,39.69
2023-04-10T18:37:22.371Z,39.45
2023-04-10T18:39:49.065Z,39.59
2023-04-10T18:42:15.524Z,39.86
2023-04-10T18:44:42.028Z,40.61
2023-04-10T18:47:08.824Z,41.60
2023-04-10T18:49:35.365Z,41.92
2023-04-10T18:52:02.304Z,42.75
2023-04-10T18:54:29.678Z,43.00
2023-04-10T18:56:56.430Z,43.72
2023-04-10T18:59:23.278Z,44.24
2023-04-10T19:01:49.792Z,44.75
2023-04-10T19:04:16.265Z,45.24
2023-04-10T19:06:42.791Z,48.28
2023-04-10T19:09:09.184Z,45.90
2023-04-10T19:11:35.804Z,46.79
2023-04-10T19:14:07.466Z,45.96
2023-04-10T19:19:00.804Z,46.68
2023-04-10T19:21:27.346Z,46.27
2023-04-10T19:23:53.906Z,46.64
2023-04-10T19:26:20.339Z,46.75
2023-04-10T19:28:47.092Z,49.33
2023-04-10T19:31:13.861Z,48.86
2023-04-10T19:33:40.277Z,54.01
2023-04-10T19:36:08.456Z,52.64
2023-04-10T19:38:35.574Z,53.53
2023-04-10T19:41:02.352Z,51.52
2023-04-10T19:43:28.760Z,54.67
2023-04-10T19:45:55.326Z,55.16
2023-04-10T19:48:21.760Z,53.76
2023-04-10T19:50:49.759Z,53.68
2023-04-10T19:53:16.299Z,55.03
2023-04-10T19:55:44.719Z,56.22
2023-04-10T19:58:25.284Z,56.58
2023-04-10T20:01:04.564Z,57.21
2023-04-10T20:03:31.327Z,58.78
2023-04-10T20:06:05.701Z,61.92
2023-04-10T20:08:32.421Z,65.25
2023-04-10T20:10:58.916Z,63.79
2023-04-10T20:13:25.679Z,66.78
2023-04-10T20:15:52.262Z,70.92
2023-04-10T20:18:18.873Z,66.92
2023-04-10T20:20:45.355Z,66.87
2023-04-10T20:23:12.463Z,64.94
2023-04-10T20:25:39.583Z,64.89
2023-04-10T20:28:06.448Z,68.12
2023-04-10T20:30:32.916Z,75.14
2023-04-10T20:32:59.466Z,78.67
2023-04-10T20:35:25.850Z,75.48
2023-04-10T20:37:52.351Z,76.04
2023-04-10T20:40:19.060Z,77.42
2023-04-10T20:42:45.487Z,81.63
2023-04-10T20:45:12.078Z,82.50
2023-04-10T20:47:38.527Z,84.54
2023-04-10T20:50:05.321Z,87.05
2023-04-10T20:52:31.727Z,91.70
2023-04-10T20:54:58.105Z,94.42
2023-04-10T20:57:24.640Z,94.46
2023-04-10T20:59:51.344Z,96.05
2023-04-10T21:02:17.942Z,96.26
2023-04-10T21:04:44.542Z,99.19
2023-04-10T21:07:11.220Z,97.88
2023-04-10T21:09:37.607Z,98.19
2023-04-10T21:12:04.578Z,98.08
2023-04-10T21:14:30.993Z,100.00
2023-04-10T21:16:57.659Z,100.00
2023-04-10T21:19:24.455Z,100.00
2023-04-10T21:21:50.851Z,100.00
2023-04-10T21:24:17.588Z,100.00
2023-04-10T21:26:44.003Z,100.00
2023-04-10T21:29:10.407Z,100.00
2023-04-10T21:31:36.817Z,100.00
2023-04-10T21:34:03.347Z,100.00
2023-04-10T21:36:29.749Z,100.00
2023-04-10T21:38:56.407Z,100.00
2023-04-10T21:41:22.995Z,100.00
2023-04-10T21:43:49.950Z,100.00
2023-04-10T21:46:16.353Z,100.00
2023-04-10T21:48:42.726Z,100.00
2023-04-10T21:51:09.154Z,100.00
2023-04-10T21:53:35.542Z,100.00
2023-04-10T21:56:02.316Z,100.00
2023-04-10T21:58:28.934Z,100.00
2023-04-10T22:00:57.624Z,100.00
2023-04-10T22:03:24.402Z,100.00
2023-04-10T22:05:51.239Z,100.00
2023-04-10T22:08:17.658Z,100.00
2023-04-10T22:10:44.056Z,100.00
2023-04-10T22:13:14.405Z,100.00
2023-04-10T22:15:47.672Z,100.00
2023-04-10T22:18:14.013Z,100.00
2023-04-10T22:20:40.479Z,100.00
2023-04-10T22:23:06.841Z,100.00
2023-04-10T22:25:33.917Z,100.00
2023-04-10T22:28:02.806Z,100.00
2023-04-10T22:30:29.291Z,100.00
2023-04-10T22:32:56.958Z,100.00
2023-04-10T22:35:23.542Z,100.00
2023-04-10T22:37:50.908Z,100.00
2023-04-10T22:40:17.349Z,100.00
2023-04-10T22:42:43.796Z,100.00
2023-04-10T22:45:10.726Z,100.00
2023-04-10T22:47:37.171Z,100.00
2023-04-10T22:50:03.830Z,100.00
2023-04-10T22:52:30.231Z,100.00
2023-04-10T22:54:57.535Z,100.00
2023-04-10T22:57:23.921Z,100.00
2023-04-10T22:59:50.404Z,100.00
2023-04-10T23:02:16.926Z,100.00
2023-04-10T23:04:43.480Z,100.00
2023-04-10T23:07:09.939Z,100.00
2023-04-10T23:09:36.688Z,100.00
2023-04-10T23:12:03.086Z,100.00
2023-04-10T23:14:30.504Z,100.00
2023-04-10T23:16:56.962Z,100.00
2023-04-10T23:19:23.332Z,100.00
2023-04-10T23:21:49.664Z,100.00
2023-04-10T23:24:16.337Z,100.00
2023-04-10T23:26:43.095Z,100.00
2023-04-10T23:29:09.597Z,97.48
2023-04-10T23:31:36.114Z,97.54
2023-04-10T23:34:04.383Z,96.58
2023-04-10T23:36:30.835Z,94.07
2023-04-10T23:38:57.277Z,94.56
2023-04-10T23:41:23.670Z,94.46
2023-04-10T23:43:50.065Z,95.15
2023-04-10T23:46:16.437Z,94.99
2023-04-10T23:48:42.834Z,94.76
2023-04-10T23:51:09.355Z,96.15
2023-04-10T23:53:36.119Z,96.54
2023-04-10T23:56:02.624Z,97.33
2023-04-10T23:58:29.035Z,97.42
